Murfreesboro, Arkansas
Current Conditions -  °F | °C
As of 10:21 AM on Saturday 20 Dec 2014 (Local Time) from KMWT Reporting Station
Overcast Overcast  
Wind Chill: 44°   Ceiling: 1500
Heat Index: 44°   Visibility: 10mi
Dew Point: 39°   Wind: 0mph
Humidity: 82%   Direction: NA
Pressure: 30.24"   Gusts: NA
Location:  34.06°N, 93.69°W
Report Text: KMWT 201621Z AUTO 00000KT 10SM FEW009 OVC015 07/04 A3024 RMK AO2 T00670039
Loading
Personal Weather Stations






























Interactive Weather Map New forecast layout! Learn more

10-Day Weather Forecast

Advertisements
Track Severe Weather on mobile